Time;durP1;ratioP1;P1;durP2;ratioP2;P2;SDS_P1;SDS_P2;PMS_P1;PMS_P2;Temp;Humidity;BMP_temperature;BMP_pressure;BME280_temperature;BME280_humidity;BME280_pressure;Samples;Min_cycle;Max_cycle;Signal;HPM_P1;HPM_P2
2023/06/30 00:01:16;;;;;;;10.93;2.67;;;;;;;;;;4992386;28;20221;-60
2023/06/30 00:03:45;;;;;;;9.23;2.47;;;;;;;;;;4993281;28;20213;-60
2023/06/30 00:06:10;;;;;;;8.18;3.08;;;;;;;;;;4992810;28;20217;-59
2023/06/30 00:08:35;;;;;;;7.93;2.67;;;;;;;;;;4988344;28;20679;-60
2023/06/30 00:11:01;;;;;;;12.20;2.90;;;;;;;;;;4963330;28;20780;-59
2023/06/30 00:13:26;;;;;;;9.98;2.60;;;;;;;;;;4943748;28;20214;-60
2023/06/30 00:15:51;;;;;;;10.77;2.88;;;;;;;;;;4946221;28;20328;-59
2023/06/30 00:18:17;;;;;;;10.10;2.88;;;;;;;;;;4954509;28;20808;-60
2023/06/30 00:20:42;;;;;;;10.48;2.78;;;;;;;;;;4954658;28;20224;-60
2023/06/30 00:23:10;;;;;;;10.85;2.65;;;;;;;;;;4962572;28;20304;-59
2023/06/30 00:25:35;;;;;;;9.15;2.92;;;;;;;;;;4963395;28;20222;-59
2023/06/30 00:28:01;;;;;;;12.73;2.67;;;;;;;;;;4957418;28;20829;-58
2023/06/30 00:30:26;;;;;;;10.68;2.78;;;;;;;;;;4943721;28;20657;-59
2023/06/30 00:32:51;;;;;;;11.07;2.53;;;;;;;;;;4962810;28;20313;-59
2023/06/30 00:35:23;;;;;;;8.80;2.47;;;;;;;;;;4962743;28;20237;-60
2023/06/30 00:37:48;;;;;;;10.75;2.53;;;;;;;;;;4957032;28;20237;-60
2023/06/30 00:40:16;;;;;;;7.80;2.17;;;;;;;;;;4954769;28;20308;-60
2023/06/30 00:42:42;;;;;;;6.97;2.50;;;;;;;;;;4941396;28;20214;-60
2023/06/30 00:45:07;;;;;;;9.00;2.67;;;;;;;;;;4947165;28;20232;-59
2023/06/30 00:47:32;;;;;;;10.65;2.63;;;;;;;;;;4962843;28;20225;-60
2023/06/30 00:49:58;;;;;;;9.70;2.88;;;;;;;;;;4962547;28;20243;-60
2023/06/30 00:52:23;;;;;;;10.43;2.88;;;;;;;;;;4962642;28;20673;-60
2023/06/30 00:54:49;;;;;;;12.38;2.60;;;;;;;;;;4960185;28;20218;-60
2023/06/30 00:57:14;;;;;;;8.98;2.40;;;;;;;;;;4943116;28;20223;-59
2023/06/30 00:59:39;;;;;;;8.75;2.60;;;;;;;;;;4940169;28;20301;-60
2023/06/30 01:02:08;;;;;;;8.55;2.50;;;;;;;;;;4935645;28;20554;-60
2023/06/30 01:04:37;;;;;;;10.27;2.55;;;;;;;;;;4954687;28;20221;-60
2023/06/30 01:07:04;;;;;;;9.82;2.40;;;;;;;;;;4958117;28;20225;-60
2023/06/30 01:09:31;;;;;;;12.65;2.63;;;;;;;;;;4958210;28;20222;-59
2023/06/30 01:11:57;;;;;;;10.88;2.72;;;;;;;;;;4960311;28;20221;-60
2023/06/30 01:14:22;;;;;;;12.60;2.95;;;;;;;;;;4963005;28;20217;-60
2023/06/30 01:16:48;;;;;;;11.70;2.38;;;;;;;;;;4970082;28;20217;-60
2023/06/30 01:19:25;;;;;;;12.35;2.97;;;;;;;;;;4964891;28;20219;-60
2023/06/30 01:21:52;;;;;;;9.55;3.13;;;;;;;;;;4952187;28;20567;-59
2023/06/30 01:24:17;;;;;;;10.60;2.78;;;;;;;;;;4951378;28;20227;-59
2023/06/30 01:26:42;;;;;;;10.98;2.75;;;;;;;;;;4952646;28;20242;-59
2023/06/30 01:29:08;;;;;;;8.80;2.67;;;;;;;;;;4953112;28;20222;-59
2023/06/30 01:31:33;;;;;;;10.02;2.58;;;;;;;;;;4952462;28;20845;-61
2023/06/30 01:33:59;;;;;;;10.73;2.80;;;;;;;;;;4957053;28;20214;-59
2023/06/30 01:36:24;;;;;;;9.77;2.55;;;;;;;;;;4956922;28;20210;-59
2023/06/30 01:38:49;;;;;;;9.35;2.78;;;;;;;;;;4956635;28;20214;-59
2023/06/30 01:41:15;;;;;;;14.18;2.97;;;;;;;;;;4958366;28;20565;-59
2023/06/30 01:43:40;;;;;;;10.38;3.13;;;;;;;;;;4976535;28;20665;-59
2023/06/30 01:46:06;;;;;;;12.93;3.15;;;;;;;;;;4975465;28;20644;-60
2023/06/30 01:48:31;;;;;;;11.05;2.97;;;;;;;;;;4976166;28;20214;-59
2023/06/30 01:50:56;;;;;;;11.13;3.08;;;;;;;;;;4976213;28;20237;-59
2023/06/30 01:53:22;;;;;;;11.15;3.20;;;;;;;;;;4973840;28;20272;-59
2023/06/30 01:55:47;;;;;;;10.40;3.25;;;;;;;;;;4975066;28;20214;-59
2023/06/30 01:58:13;;;;;;;9.50;3.33;;;;;;;;;;4975811;28;20237;-60
2023/06/30 02:00:38;;;;;;;12.25;3.72;;;;;;;;;;4975831;28;20235;-59
2023/06/30 02:03:03;;;;;;;10.40;3.72;;;;;;;;;;4975452;28;20220;-59
2023/06/30 02:05:29;;;;;;;11.85;3.15;;;;;;;;;;4976210;28;20297;-59
2023/06/30 02:07:54;;;;;;;11.10;3.72;;;;;;;;;;4975617;28;20708;-59
2023/06/30 02:10:19;;;;;;;7.93;3.60;;;;;;;;;;4975295;28;20590;-59
2023/06/30 02:12:44;;;;;;;9.45;3.50;;;;;;;;;;4976008;28;20266;-60
2023/06/30 02:15:10;;;;;;;12.23;3.35;;;;;;;;;;4974443;28;20236;-59
2023/06/30 02:17:35;;;;;;;13.70;3.78;;;;;;;;;;4975670;28;20309;-59
2023/06/30 02:20:00;;;;;;;12.02;3.97;;;;;;;;;;4975140;28;20216;-59
2023/06/30 02:22:26;;;;;;;9.35;3.42;;;;;;;;;;4975124;28;20217;-59
2023/06/30 02:24:53;;;;;;;11.45;3.80;;;;;;;;;;4975296;28;20940;-59
2023/06/30 02:27:19;;;;;;;11.40;3.92;;;;;;;;;;4975002;28;20289;-60
2023/06/30 02:29:44;;;;;;;14.20;4.03;;;;;;;;;;4974762;28;20288;-60
2023/06/30 02:32:10;;;;;;;9.35;3.60;;;;;;;;;;4975235;28;20218;-60
2023/06/30 02:34:35;;;;;;;12.25;4.05;;;;;;;;;;4975563;28;20280;-60
2023/06/30 02:37:00;;;;;;;13.00;3.70;;;;;;;;;;4974369;28;20221;-60
2023/06/30 02:39:26;;;;;;;12.88;4.07;;;;;;;;;;4975512;28;20266;-60
2023/06/30 02:41:51;;;;;;;12.68;3.60;;;;;;;;;;4975506;28;20305;-60
2023/06/30 02:44:16;;;;;;;13.40;3.70;;;;;;;;;;4973542;28;20249;-60
2023/06/30 02:46:42;;;;;;;11.80;4.15;;;;;;;;;;4975379;28;20209;-60
2023/06/30 02:49:07;;;;;;;12.73;4.05;;;;;;;;;;4972697;28;20630;-60
2023/06/30 02:51:33;;;;;;;12.48;4.03;;;;;;;;;;4974967;28;20214;-60
2023/06/30 02:53:58;;;;;;;10.55;4.15;;;;;;;;;;4975353;28;20727;-60
2023/06/30 02:56:23;;;;;;;11.27;4.13;;;;;;;;;;4974086;28;20244;-60
2023/06/30 02:58:48;;;;;;;12.85;3.90;;;;;;;;;;4975042;28;20316;-60
2023/06/30 03:01:14;;;;;;;11.13;4.20;;;;;;;;;;4974628;28;20220;-60
2023/06/30 03:03:39;;;;;;;12.35;4.00;;;;;;;;;;4974503;28;20214;-60
2023/06/30 03:06:05;;;;;;;12.50;4.10;;;;;;;;;;4974250;28;20210;-60
2023/06/30 03:08:30;;;;;;;10.40;4.07;;;;;;;;;;4974969;28;20632;-59
2023/06/30 03:10:55;;;;;;;8.98;3.45;;;;;;;;;;4974417;28;20304;-60
2023/06/30 03:13:20;;;;;;;13.75;4.03;;;;;;;;;;4974192;28;20304;-59
2023/06/30 03:15:46;;;;;;;8.90;3.83;;;;;;;;;;4974624;28;20248;-59
2023/06/30 03:18:11;;;;;;;11.98;4.13;;;;;;;;;;4973651;28;20252;-59
2023/06/30 03:20:36;;;;;;;10.70;3.75;;;;;;;;;;4974536;28;20649;-60
2023/06/30 03:23:02;;;;;;;11.45;4.05;;;;;;;;;;4965799;28;20724;-59
2023/06/30 03:25:27;;;;;;;16.00;4.15;;;;;;;;;;4945774;28;20210;-60
2023/06/30 03:27:52;;;;;;;11.45;3.55;;;;;;;;;;4945462;28;20234;-60
2023/06/30 03:30:18;;;;;;;12.68;3.85;;;;;;;;;;4941177;28;20317;-60
2023/06/30 03:32:43;;;;;;;10.73;3.92;;;;;;;;;;4937365;28;21111;-59
2023/06/30 03:35:08;;;;;;;8.07;3.90;;;;;;;;;;4936699;28;20233;-60
2023/06/30 03:37:34;;;;;;;10.45;4.15;;;;;;;;;;4940951;28;20219;-60
2023/06/30 03:40:00;;;;;;;10.40;4.10;;;;;;;;;;4944795;28;20219;-60
2023/06/30 03:42:26;;;;;;;8.68;3.38;;;;;;;;;;4944746;28;20344;-60
2023/06/30 03:44:51;;;;;;;11.60;4.03;;;;;;;;;;4945197;28;20779;-59
2023/06/30 03:47:16;;;;;;;10.18;4.00;;;;;;;;;;4943754;28;20258;-59
2023/06/30 03:49:42;;;;;;;11.20;4.07;;;;;;;;;;4952884;28;20662;-60
2023/06/30 03:52:07;;;;;;;10.57;4.20;;;;;;;;;;4943252;28;20226;-60
2023/06/30 03:54:32;;;;;;;10.00;3.95;;;;;;;;;;4936759;28;20214;-59
2023/06/30 03:56:58;;;;;;;11.13;4.00;;;;;;;;;;4936297;28;20228;-60
2023/06/30 03:59:23;;;;;;;11.57;3.88;;;;;;;;;;4946107;28;20219;-59
2023/06/30 04:01:48;;;;;;;11.15;3.83;;;;;;;;;;4971441;28;20661;-60
2023/06/30 04:04:13;;;;;;;11.10;4.20;;;;;;;;;;4972296;28;20437;-60
2023/06/30 04:06:39;;;;;;;8.35;3.67;;;;;;;;;;4973125;28;20220;-60
2023/06/30 04:09:05;;;;;;;10.88;4.18;;;;;;;;;;4973334;28;20634;-60
2023/06/30 04:11:30;;;;;;;12.40;4.47;;;;;;;;;;4972080;28;20484;-61
2023/06/30 04:13:57;;;;;;;9.10;4.13;;;;;;;;;;4972861;28;20308;-60
2023/06/30 04:16:22;;;;;;;12.02;3.97;;;;;;;;;;4972316;28;20222;-61
2023/06/30 04:18:47;;;;;;;12.13;4.25;;;;;;;;;;4973008;28;20216;-60
2023/06/30 04:21:13;;;;;;;9.65;3.65;;;;;;;;;;4972214;28;20341;-59
2023/06/30 04:23:38;;;;;;;11.52;3.92;;;;;;;;;;4973332;28;20653;-60
2023/06/30 04:26:06;;;;;;;10.00;3.75;;;;;;;;;;4970285;28;20256;-60
2023/06/30 04:28:31;;;;;;;9.63;3.95;;;;;;;;;;4953477;28;20222;-59
2023/06/30 04:30:58;;;;;;;10.95;3.95;;;;;;;;;;4952042;28;20230;-59
2023/06/30 04:33:23;;;;;;;8.70;3.70;;;;;;;;;;4953631;28;20214;-59
2023/06/30 04:35:49;;;;;;;8.02;3.53;;;;;;;;;;4968776;28;20300;-60
2023/06/30 04:38:14;;;;;;;8.98;3.75;;;;;;;;;;4972941;28;20605;-59
2023/06/30 04:40:39;;;;;;;10.02;3.72;;;;;;;;;;4973565;28;20532;-59
2023/06/30 04:43:12;;;;;;;11.50;3.38;;;;;;;;;;4972276;28;20356;-59
2023/06/30 04:45:37;;;;;;;9.02;3.40;;;;;;;;;;4973203;28;20304;-60
2023/06/30 04:48:02;;;;;;;7.07;3.05;;;;;;;;;;4972881;28;20301;-59
2023/06/30 04:50:28;;;;;;;9.30;3.00;;;;;;;;;;4972174;28;20260;-60
2023/06/30 04:52:53;;;;;;;10.65;3.17;;;;;;;;;;4973266;28;20228;-59
2023/06/30 04:55:18;;;;;;;9.10;3.22;;;;;;;;;;4972886;28;20637;-59
2023/06/30 04:57:44;;;;;;;9.90;3.10;;;;;;;;;;4972302;28;20309;-59
2023/06/30 05:00:09;;;;;;;11.60;2.97;;;;;;;;;;4972466;28;20685;-59
2023/06/30 05:02:35;;;;;;;9.38;3.08;;;;;;;;;;4969207;28;20219;-60
2023/06/30 05:05:00;;;;;;;9.32;2.83;;;;;;;;;;4953578;28;20229;-60
2023/06/30 05:07:26;;;;;;;10.10;2.85;;;;;;;;;;4952828;28;20344;-60
2023/06/30 05:09:51;;;;;;;8.45;2.75;;;;;;;;;;4967421;28;20372;-59
2023/06/30 05:12:16;;;;;;;8.10;3.10;;;;;;;;;;4953929;28;20309;-60
2023/06/30 05:14:42;;;;;;;9.32;2.78;;;;;;;;;;4955979;28;20678;-60
2023/06/30 05:17:07;;;;;;;7.43;2.85;;;;;;;;;;4971833;28;20220;-60
2023/06/30 05:19:32;;;;;;;7.95;2.97;;;;;;;;;;4972487;28;20701;-59
2023/06/30 05:21:57;;;;;;;9.32;2.90;;;;;;;;;;4972900;28;20669;-60
2023/06/30 05:24:23;;;;;;;8.32;2.67;;;;;;;;;;4971841;28;20224;-60
2023/06/30 05:26:48;;;;;;;9.88;2.70;;;;;;;;;;4972708;28;20595;-60
2023/06/30 05:29:13;;;;;;;9.57;2.47;;;;;;;;;;4972360;28;20590;-60
2023/06/30 05:31:39;;;;;;;11.85;2.60;;;;;;;;;;4972285;28;20268;-60
2023/06/30 05:34:04;;;;;;;6.60;2.20;;;;;;;;;;4972031;28;20369;-59
2023/06/30 05:36:30;;;;;;;9.07;2.33;;;;;;;;;;4972492;28;20320;-60
2023/06/30 05:38:56;;;;;;;7.35;2.30;;;;;;;;;;4972273;28;20297;-60
2023/06/30 05:41:21;;;;;;;10.73;2.38;;;;;;;;;;4972284;28;20226;-60
2023/06/30 05:43:46;;;;;;;8.95;2.17;;;;;;;;;;4972690;28;20665;-60
2023/06/30 05:46:12;;;;;;;9.10;2.70;;;;;;;;;;4971508;28;20218;-60
2023/06/30 05:48:37;;;;;;;8.82;2.00;;;;;;;;;;4972524;28;20225;-60
2023/06/30 05:51:02;;;;;;;7.45;2.22;;;;;;;;;;4972257;28;20229;-59
2023/06/30 05:53:28;;;;;;;7.40;2.15;;;;;;;;;;4971760;28;20214;-60
2023/06/30 05:55:55;;;;;;;6.32;2.10;;;;;;;;;;4972606;28;20221;-59
2023/06/30 05:58:20;;;;;;;7.30;2.17;;;;;;;;;;4972195;28;20241;-60
2023/06/30 06:00:46;;;;;;;8.23;2.00;;;;;;;;;;4971732;28;20685;-60
2023/06/30 06:03:11;;;;;;;9.20;2.10;;;;;;;;;;4972075;28;20218;-60
2023/06/30 06:05:36;;;;;;;8.25;2.00;;;;;;;;;;4972482;28;20213;-60
2023/06/30 06:08:02;;;;;;;6.60;1.92;;;;;;;;;;4971132;28;20237;-60
2023/06/30 06:10:28;;;;;;;6.75;1.75;;;;;;;;;;4972133;28;20530;-60
2023/06/30 06:12:53;;;;;;;6.22;2.20;;;;;;;;;;4972138;28;20309;-60
2023/06/30 06:15:18;;;;;;;6.90;1.60;;;;;;;;;;4971680;28;20292;-60
2023/06/30 06:17:44;;;;;;;8.02;1.80;;;;;;;;;;4972246;28;20217;-60
2023/06/30 06:20:09;;;;;;;5.75;1.63;;;;;;;;;;4974067;28;20230;-60
2023/06/30 06:22:35;;;;;;;6.18;1.77;;;;;;;;;;4975741;28;20220;-60
2023/06/30 06:25:00;;;;;;;8.93;1.75;;;;;;;;;;4975832;28;20222;-60
2023/06/30 06:27:25;;;;;;;4.65;1.73;;;;;;;;;;4974896;28;20241;-60
2023/06/30 06:29:51;;;;;;;8.13;2.30;;;;;;;;;;4975383;28;20237;-60
2023/06/30 06:32:18;;;;;;;7.53;2.20;;;;;;;;;;4975294;28;20553;-60
2023/06/30 06:34:44;;;;;;;8.13;1.80;;;;;;;;;;4974852;28;20226;-60
2023/06/30 06:37:09;;;;;;;8.13;1.60;;;;;;;;;;4975088;28;20228;-60
2023/06/30 06:39:34;;;;;;;5.57;1.75;;;;;;;;;;4975562;28;20688;-60
2023/06/30 06:42:00;;;;;;;7.13;1.92;;;;;;;;;;4975223;28;20245;-60
2023/06/30 06:44:25;;;;;;;6.20;1.92;;;;;;;;;;4973603;28;20313;-60
2023/06/30 06:47:09;;;;;;;4.22;1.50;;;;;;;;;;4975431;28;20231;-60
2023/06/30 06:49:34;;;;;;;10.52;1.83;;;;;;;;;;4974175;28;20300;-60
2023/06/30 06:52:00;;;;;;;7.18;1.92;;;;;;;;;;4975256;28;20310;-60
2023/06/30 06:54:25;;;;;;;6.85;1.83;;;;;;;;;;4974898;28;20210;-60
2023/06/30 06:56:51;;;;;;;8.13;1.70;;;;;;;;;;4974358;28;20225;-60
2023/06/30 06:59:17;;;;;;;8.40;2.10;;;;;;;;;;4974924;28;20210;-60
2023/06/30 07:01:42;;;;;;;7.70;1.90;;;;;;;;;;4975062;28;20228;-60
2023/06/30 07:04:07;;;;;;;7.72;1.90;;;;;;;;;;4973868;28;20218;-60
2023/06/30 07:06:33;;;;;;;6.53;1.90;;;;;;;;;;4974871;28;20218;-60
2023/06/30 07:08:58;;;;;;;8.20;1.95;;;;;;;;;;4974780;28;20695;-60
2023/06/30 07:11:24;;;;;;;8.18;1.90;;;;;;;;;;4973584;28;20241;-59
2023/06/30 07:13:49;;;;;;;7.47;1.73;;;;;;;;;;4975053;28;20637;-60
2023/06/30 07:16:17;;;;;;;4.68;1.80;;;;;;;;;;4973590;28;20217;-60
2023/06/30 07:18:43;;;;;;;6.38;1.90;;;;;;;;;;4974476;28;20221;-60
2023/06/30 07:21:08;;;;;;;6.32;1.73;;;;;;;;;;4974304;28;20210;-60
2023/06/30 07:23:33;;;;;;;4.22;1.77;;;;;;;;;;4974141;28;20217;-60
2023/06/30 07:25:59;;;;;;;8.00;1.88;;;;;;;;;;4974540;28;20305;-60
2023/06/30 07:28:24;;;;;;;7.80;1.80;;;;;;;;;;4974176;28;20249;-60
2023/06/30 07:30:49;;;;;;;6.15;1.70;;;;;;;;;;4973835;28;20318;-60
2023/06/30 07:33:15;;;;;;;6.85;2.13;;;;;;;;;;4973997;28;20581;-60
2023/06/30 07:35:40;;;;;;;5.63;1.70;;;;;;;;;;4974436;28;20218;-60
2023/06/30 07:38:05;;;;;;;6.07;1.60;;;;;;;;;;4973654;28;20245;-60
2023/06/30 07:40:31;;;;;;;6.40;1.50;;;;;;;;;;4974236;28;20221;-60
2023/06/30 07:42:56;;;;;;;5.25;1.40;;;;;;;;;;4974389;28;20220;-60
2023/06/30 07:45:21;;;;;;;6.00;1.30;;;;;;;;;;4973395;28;20222;-60
2023/06/30 07:47:47;;;;;;;4.13;1.30;;;;;;;;;;4974015;28;20304;-60
2023/06/30 07:50:13;;;;;;;5.70;1.63;;;;;;;;;;4973666;28;20218;-61
2023/06/30 07:52:39;;;;;;;5.95;1.60;;;;;;;;;;4973567;28;20304;-60
2023/06/30 07:55:04;;;;;;;7.40;1.40;;;;;;;;;;4973736;28;20217;-60
2023/06/30 07:57:30;;;;;;;3.97;1.10;;;;;;;;;;4973921;28;20290;-60
2023/06/30 07:59:55;;;;;;;5.07;1.33;;;;;;;;;;4973302;28;20272;-60
2023/06/30 08:02:20;;;;;;;4.78;1.20;;;;;;;;;;4973558;28;20230;-60
2023/06/30 08:04:45;;;;;;;6.05;1.50;;;;;;;;;;4973925;28;20646;-61
2023/06/30 08:07:11;;;;;;;4.85;1.23;;;;;;;;;;4972742;28;20214;-60
2023/06/30 08:09:36;;;;;;;5.53;1.70;;;;;;;;;;4973631;28;20237;-60
2023/06/30 08:12:01;;;;;;;5.45;1.40;;;;;;;;;;4973738;28;20221;-59
2023/06/30 08:14:27;;;;;;;6.75;1.42;;;;;;;;;;4972883;28;20688;-60
2023/06/30 08:16:52;;;;;;;6.65;1.40;;;;;;;;;;4973770;28;20296;-61
2023/06/30 08:19:18;;;;;;;4.35;1.30;;;;;;;;;;4973316;28;20218;-60
2023/06/30 08:21:43;;;;;;;3.38;1.30;;;;;;;;;;4972773;28;20661;-60
2023/06/30 08:24:08;;;;;;;6.30;1.35;;;;;;;;;;4973250;28;20297;-60
2023/06/30 08:26:34;;;;;;;5.82;1.40;;;;;;;;;;4972779;28;20324;-60
2023/06/30 08:28:59;;;;;;;5.95;1.67;;;;;;;;;;4973067;28;20708;-60
2023/06/30 08:31:24;;;;;;;5.88;1.58;;;;;;;;;;4973313;28;20687;-61
2023/06/30 08:33:50;;;;;;;7.00;1.20;;;;;;;;;;4972986;28;20225;-61
2023/06/30 08:36:15;;;;;;;7.75;1.80;;;;;;;;;;4972785;28;20220;-60
2023/06/30 08:38:40;;;;;;;5.10;1.38;;;;;;;;;;4973391;28;20301;-60
2023/06/30 08:41:06;;;;;;;4.40;1.20;;;;;;;;;;4972032;28;20301;-61
2023/06/30 08:43:31;;;;;;;4.03;1.20;;;;;;;;;;4971731;28;20571;-60
2023/06/30 08:45:56;;;;;;;5.22;1.50;;;;;;;;;;4973355;28;20677;-60
2023/06/30 08:48:22;;;;;;;4.68;1.20;;;;;;;;;;4972185;28;20218;-60
2023/06/30 08:50:47;;;;;;;4.85;1.08;;;;;;;;;;4955431;28;20226;-60
2023/06/30 08:53:12;;;;;;;4.00;1.40;;;;;;;;;;4972832;28;20214;-60
2023/06/30 08:55:38;;;;;;;6.47;1.52;;;;;;;;;;4972278;28;20302;-60
2023/06/30 08:58:03;;;;;;;4.97;1.27;;;;;;;;;;4972803;28;20685;-60
2023/06/30 09:00:29;;;;;;;4.18;1.50;;;;;;;;;;4973110;28;20217;-61
2023/06/30 09:02:54;;;;;;;9.52;1.30;;;;;;;;;;4972266;28;20332;-60
2023/06/30 09:05:25;;;;;;;6.75;1.30;;;;;;;;;;4972832;28;20222;-60
2023/06/30 09:07:57;;;;;;;4.18;1.30;;;;;;;;;;4972850;28;21024;-60
2023/06/30 09:10:23;;;;;;;3.13;1.10;;;;;;;;;;4971545;28;20241;-60
2023/06/30 09:12:50;;;;;;;5.25;1.05;;;;;;;;;;4972915;28;20229;-60
2023/06/30 09:15:17;;;;;;;5.85;1.20;;;;;;;;;;4971124;28;20569;-61
2023/06/30 09:17:42;;;;;;;4.28;1.25;;;;;;;;;;4972224;28;20260;-60
2023/06/30 09:20:08;;;;;;;5.18;1.20;;;;;;;;;;4972510;28;20626;-60
2023/06/30 09:22:33;;;;;;;2.75;1.15;;;;;;;;;;4971587;28;20214;-60
2023/06/30 09:24:59;;;;;;;5.28;1.33;;;;;;;;;;4972141;28;20674;-60
2023/06/30 09:27:25;;;;;;;4.70;1.10;;;;;;;;;;4970793;28;20233;-61
2023/06/30 09:29:54;;;;;;;3.45;1.00;;;;;;;;;;4972209;28;20243;-61
2023/06/30 09:32:25;;;;;;;3.80;1.10;;;;;;;;;;4972263;28;20637;-60
2023/06/30 09:34:52;;;;;;;4.93;1.20;;;;;;;;;;4972767;28;20222;-60
2023/06/30 09:37:17;;;;;;;4.90;1.20;;;;;;;;;;4971848;28;20289;-61
2023/06/30 09:39:45;;;;;;;4.57;1.42;;;;;;;;;;4972419;28;20309;-60
2023/06/30 09:42:16;;;;;;;2.20;1.02;;;;;;;;;;4970933;28;20229;-61
2023/06/30 09:44:42;;;;;;;4.28;1.40;;;;;;;;;;4972067;28;20588;-61
2023/06/30 09:47:07;;;;;;;4.68;1.20;;;;;;;;;;4971994;28;20210;-60
2023/06/30 09:49:32;;;;;;;4.25;1.35;;;;;;;;;;4972387;28;20631;-60
2023/06/30 09:52:04;;;;;;;3.65;1.40;;;;;;;;;;4971864;28;20210;-60
2023/06/30 09:54:30;;;;;;;4.35;1.00;;;;;;;;;;4974008;28;20224;-61
2023/06/30 09:56:58;;;;;;;5.65;1.25;;;;;;;;;;4976311;28;20620;-61
2023/06/30 09:59:23;;;;;;;3.45;1.20;;;;;;;;;;4975086;28;20229;-60
2023/06/30 10:01:51;;;;;;;5.28;1.30;;;;;;;;;;4976425;28;20590;-61
2023/06/30 10:04:16;;;;;;;4.00;1.30;;;;;;;;;;4975914;28;20228;-60
2023/06/30 10:06:42;;;;;;;5.13;1.25;;;;;;;;;;4975496;28;20209;-60
2023/06/30 10:09:07;;;;;;;4.40;1.20;;;;;;;;;;4974091;28;20221;-60
2023/06/30 10:11:32;;;;;;;3.20;1.20;;;;;;;;;;4974816;28;20225;-60
2023/06/30 10:13:58;;;;;;;4.50;1.20;;;;;;;;;;4975421;28;20213;-61
2023/06/30 10:16:23;;;;;;;6.88;1.25;;;;;;;;;;4975422;28;20235;-61
2023/06/30 10:18:49;;;;;;;4.32;1.30;;;;;;;;;;4974910;28;20704;-61
2023/06/30 10:21:14;;;;;;;3.30;1.10;;;;;;;;;;4973354;28;20214;-60
2023/06/30 10:23:40;;;;;;;4.78;1.40;;;;;;;;;;4975865;28;20218;-61
2023/06/30 10:26:05;;;;;;;5.55;1.48;;;;;;;;;;4973817;28;20316;-60
2023/06/30 10:28:32;;;;;;;4.43;1.20;;;;;;;;;;4973904;28;20221;-60
2023/06/30 10:30:57;;;;;;;3.75;1.13;;;;;;;;;;4975654;28;20222;-60
2023/06/30 10:33:23;;;;;;;2.90;1.20;;;;;;;;;;4974894;28;20280;-60
2023/06/30 10:35:48;;;;;;;7.05;1.40;;;;;;;;;;4975462;28;20214;-61
2023/06/30 10:38:13;;;;;;;5.35;1.25;;;;;;;;;;4975188;28;20715;-60
2023/06/30 10:40:38;;;;;;;6.10;1.27;;;;;;;;;;4975235;28;20693;-60
2023/06/30 10:43:05;;;;;;;6.63;1.38;;;;;;;;;;4974998;28;20719;-60
2023/06/30 10:45:34;;;;;;;4.80;1.40;;;;;;;;;;4975378;28;20224;-60
2023/06/30 10:48:09;;;;;;;4.32;1.20;;;;;;;;;;4973474;28;20213;-60
2023/06/30 10:50:41;;;;;;;6.82;1.50;;;;;;;;;;4975048;28;20225;-60
2023/06/30 10:53:06;;;;;;;6.85;1.45;;;;;;;;;;4974904;28;20308;-60
2023/06/30 10:55:32;;;;;;;4.43;1.40;;;;;;;;;;4974634;28;20301;-60
2023/06/30 10:57:58;;;;;;;5.70;1.90;;;;;;;;;;4975282;28;20308;-60
2023/06/30 11:00:26;;;;;;;5.55;1.73;;;;;;;;;;4974666;28;20369;-60
2023/06/30 11:02:54;;;;;;;8.85;1.70;;;;;;;;;;4974417;28;20305;-60
2023/06/30 11:05:26;;;;;;;7.43;1.58;;;;;;;;;;4974135;28;20726;-60
2023/06/30 11:07:52;;;;;;;5.75;1.70;;;;;;;;;;4975322;28;20298;-60
2023/06/30 11:10:47;;;;;;;6.13;1.58;;;;;;;;;;4973403;28;20236;-60
2023/06/30 11:13:13;;;;;;;4.63;1.60;;;;;;;;;;4961783;28;20684;-60
2023/06/30 11:15:38;;;;;;;8.88;1.98;;;;;;;;;;4972972;28;20629;-60
2023/06/30 11:18:05;;;;;;;8.23;2.00;;;;;;;;;;4974183;28;20217;-60
2023/06/30 11:20:31;;;;;;;7.43;1.95;;;;;;;;;;4974905;28;20268;-60
2023/06/30 11:22:57;;;;;;;6.03;1.90;;;;;;;;;;4974294;28;20214;-60
2023/06/30 11:25:22;;;;;;;5.47;1.50;;;;;;;;;;4974226;28;20220;-60
2023/06/30 11:27:48;;;;;;;8.05;1.98;;;;;;;;;;4974474;28;20312;-60
2023/06/30 11:30:16;;;;;;;5.28;1.60;;;;;;;;;;4973651;28;20226;-60
2023/06/30 11:32:41;;;;;;;5.75;1.67;;;;;;;;;;4974537;28;20271;-60
2023/06/30 11:35:07;;;;;;;5.43;1.50;;;;;;;;;;4974386;28;20637;-60
2023/06/30 11:37:36;;;;;;;4.78;1.48;;;;;;;;;;4972534;28;20210;-60
2023/06/30 11:40:01;;;;;;;6.45;1.70;;;;;;;;;;4974068;28;20242;-60
2023/06/30 11:42:27;;;;;;;7.82;1.85;;;;;;;;;;4974349;28;20300;-60
2023/06/30 11:44:52;;;;;;;5.20;1.60;;;;;;;;;;4973490;28;20217;-60
2023/06/30 11:47:17;;;;;;;6.10;2.22;;;;;;;;;;4973973;28;20229;-61
2023/06/30 11:49:43;;;;;;;5.15;1.50;;;;;;;;;;4974480;28;20224;-60
2023/06/30 11:52:08;;;;;;;4.75;1.80;;;;;;;;;;4973021;28;20512;-60
2023/06/30 11:54:35;;;;;;;7.70;1.80;;;;;;;;;;4974119;28;20222;-60
2023/06/30 11:57:00;;;;;;;5.63;1.75;;;;;;;;;;4972928;28;20225;-61
2023/06/30 11:59:26;;;;;;;8.32;1.70;;;;;;;;;;4972857;28;20684;-60
2023/06/30 12:01:51;;;;;;;6.40;1.70;;;;;;;;;;4974151;28;20222;-60
2023/06/30 12:04:16;;;;;;;6.38;1.40;;;;;;;;;;4973703;28;20222;-60
2023/06/30 12:06:43;;;;;;;4.60;1.48;;;;;;;;;;4973126;28;20218;-60
2023/06/30 12:09:08;;;;;;;5.10;1.48;;;;;;;;;;4972149;28;20213;-60
2023/06/30 12:11:33;;;;;;;6.68;1.83;;;;;;;;;;4973718;28;20276;-60
2023/06/30 12:14:00;;;;;;;7.63;1.50;;;;;;;;;;4973133;28;20628;-60
2023/06/30 12:16:36;;;;;;;5.85;1.60;;;;;;;;;;4975550;28;20229;-60
2023/06/30 12:19:05;;;;;;;5.65;1.77;;;;;;;;;;4971290;28;20566;-60
2023/06/30 12:21:30;;;;;;;7.30;1.55;;;;;;;;;;4973853;28;20214;-60
2023/06/30 12:23:56;;;;;;;6.43;1.58;;;;;;;;;;4973655;28;20213;-60
2023/06/30 12:26:25;;;;;;;5.32;1.58;;;;;;;;;;4972254;28;20229;-60
2023/06/30 12:28:50;;;;;;;4.68;2.03;;;;;;;;;;4973337;28;20225;-60
2023/06/30 12:31:15;;;;;;;5.75;1.70;;;;;;;;;;4971923;28;20602;-60
2023/06/30 12:33:41;;;;;;;7.85;1.90;;;;;;;;;;4971411;28;20327;-61
2023/06/30 12:36:06;;;;;;;4.75;1.75;;;;;;;;;;4973218;28;20317;-60
2023/06/30 12:38:31;;;;;;;3.75;1.90;;;;;;;;;;4973247;28;20301;-61
2023/06/30 12:40:57;;;;;;;4.85;1.85;;;;;;;;;;4972749;28;20222;-60
2023/06/30 12:43:24;;;;;;;7.15;2.10;;;;;;;;;;4971508;28;20749;-61
2023/06/30 12:45:49;;;;;;;7.05;2.25;;;;;;;;;;4973458;28;20277;-60
2023/06/30 12:48:15;;;;;;;4.72;1.70;;;;;;;;;;4972011;28;20217;-60
2023/06/30 12:50:40;;;;;;;9.40;2.10;;;;;;;;;;4973307;28;20312;-60
2023/06/30 12:53:07;;;;;;;6.60;2.10;;;;;;;;;;4972842;28;20220;-60
2023/06/30 12:55:33;;;;;;;5.57;1.88;;;;;;;;;;4972287;28;20205;-60
2023/06/30 12:57:58;;;;;;;5.78;1.83;;;;;;;;;;4973229;28;20272;-60
2023/06/30 13:00:23;;;;;;;6.97;2.42;;;;;;;;;;4972904;28;20268;-60
2023/06/30 13:02:49;;;;;;;6.68;2.10;;;;;;;;;;4972238;28;20360;-60
2023/06/30 13:05:14;;;;;;;3.92;1.70;;;;;;;;;;4972649;28;20210;-60
2023/06/30 13:07:39;;;;;;;5.90;2.00;;;;;;;;;;4973071;28;20217;-60
2023/06/30 13:10:05;;;;;;;6.53;2.13;;;;;;;;;;4971506;28;20229;-60
2023/06/30 13:12:30;;;;;;;7.85;2.00;;;;;;;;;;4972815;28;20237;-60
2023/06/30 13:14:56;;;;;;;4.47;1.90;;;;;;;;;;4972209;28;20215;-60
2023/06/30 13:17:22;;;;;;;7.65;2.00;;;;;;;;;;4972197;28;20225;-60
2023/06/30 13:19:47;;;;;;;6.93;2.55;;;;;;;;;;4972751;28;20565;-60
2023/06/30 13:22:13;;;;;;;6.68;2.33;;;;;;;;;;4972028;28;20676;-60
2023/06/30 13:24:39;;;;;;;6.95;2.00;;;;;;;;;;4972606;28;20623;-60
2023/06/30 13:27:04;;;;;;;6.05;2.30;;;;;;;;;;4972094;28;20257;-60
2023/06/30 13:29:31;;;;;;;4.85;1.70;;;;;;;;;;4975622;28;20210;-60
2023/06/30 13:31:57;;;;;;;6.57;1.90;;;;;;;;;;4976795;28;20231;-61
2023/06/30 13:34:22;;;;;;;6.32;1.77;;;;;;;;;;4976325;28;20221;-60
2023/06/30 13:36:48;;;;;;;7.00;2.10;;;;;;;;;;4976218;28;20218;-60
2023/06/30 13:39:13;;;;;;;6.22;2.17;;;;;;;;;;4976304;28;20251;-60
2023/06/30 13:41:38;;;;;;;6.72;2.30;;;;;;;;;;4976501;28;20359;-60
2023/06/30 13:44:04;;;;;;;5.00;1.70;;;;;;;;;;4975563;28;20221;-60
2023/06/30 13:46:29;;;;;;;4.05;1.90;;;;;;;;;;4976629;28;20217;-60
2023/06/30 13:48:54;;;;;;;4.32;2.38;;;;;;;;;;4976472;28;20221;-60
2023/06/30 13:51:21;;;;;;;7.25;2.55;;;;;;;;;;4975281;28;20241;-60
2023/06/30 13:53:46;;;;;;;6.45;1.92;;;;;;;;;;4976390;28;20228;-60
2023/06/30 13:56:11;;;;;;;5.05;1.92;;;;;;;;;;4975560;28;20209;-60
2023/06/30 13:58:37;;;;;;;5.65;2.25;;;;;;;;;;4975457;28;20221;-60
2023/06/30 14:01:02;;;;;;;5.15;2.20;;;;;;;;;;4975736;28;20238;-60
2023/06/30 14:03:27;;;;;;;6.90;2.50;;;;;;;;;;4976220;28;20213;-60
2023/06/30 14:05:53;;;;;;;5.88;2.25;;;;;;;;;;4974784;28;20206;-60
2023/06/30 14:08:19;;;;;;;3.72;2.20;;;;;;;;;;4975390;28;20256;-60
2023/06/30 14:10:45;;;;;;;4.55;1.80;;;;;;;;;;4975475;28;20218;-60
2023/06/30 14:13:10;;;;;;;6.18;2.30;;;;;;;;;;4974906;28;20292;-60
2023/06/30 14:15:36;;;;;;;7.15;2.40;;;;;;;;;;4975510;28;20579;-60
2023/06/30 14:18:02;;;;;;;5.10;2.15;;;;;;;;;;4974727;28;20297;-60
2023/06/30 14:20:29;;;;;;;5.60;2.22;;;;;;;;;;4974686;28;20419;-60
2023/06/30 14:23:10;;;;;;;;;;;;;;;;;;;;;
2023/06/30 14:25:36;;;;;;;4.85;2.13;;;;;;;;;;4971348;28;20521;-60
2023/06/30 14:28:01;;;;;;;5.47;2.70;;;;;;;;;;4975138;28;20317;-60
2023/06/30 14:30:31;;;;;;;7.32;2.67;;;;;;;;;;4975716;28;20583;-60
2023/06/30 14:32:56;;;;;;;4.90;2.20;;;;;;;;;;4974553;28;20293;-60